This is the latest recevied weather packets stored in our database for station/object WA9AFM-10. If no packets are shown the sender has not sent any weather packets the latest 10 day(s).
| Time | Temp. | Humidity | Pressure | Rain* | Wind** | Luminosity | Snow |
|---|---|---|---|---|---|---|---|
| 1778001674 | 14.44° C | 83% | 1000.5 hPa | 0 mm | - | - | - |
| 1777999876 | 15.56° C | 82% | 999.6 hPa | 0 mm | - | - | - |
| 1777994476 | 22.78° C | 77% | 996.8 hPa | 0 mm | - | - | - |
| 1777990873 | 22.22° C | 79% | 996 hPa | 0 mm | - | - | - |
| 1777989074 | 22.22° C | 78% | 995.9 hPa | 0 mm | - | - | - |
| 1777967535 | 21.11° C | 79% | 994.3 hPa | 0 mm | - | - | - |
| 1777967473 | 21.11° C | 79% | 994.3 hPa | 0 mm | - | - | - |
| 1777965720 | 21.11° C | 79% | 994.7 hPa | 0 mm | - | - | - |
| 1777965675 | 21.11° C | 79% | 994.7 hPa | 0 mm | - | - | - |
| 1777963873 | 21.67° C | 78% | 995.1 hPa | 0 mm | - | - | - |
| 1777962073 | 21.67° C | 78% | 995.4 hPa | 0 mm | - | - | - |
| 1777960273 | 21.67° C | 78% | 995.7 hPa | 0 mm | - | - | - |
| 1777958473 | 21.67° C | 77% | 995.8 hPa | 0 mm | - | - | - |
| 1777956672 | 21.67° C | 76% | 996 hPa | 0 mm | - | - | - |
| 1777954874 | 22.22° C | 75% | 996.3 hPa | 0 mm | - | - | - |
| 1777953073 | 22.22° C | 73% | 996.3 hPa | 0 mm | - | - | - |
| 1777949473 | 23.33° C | 70% | 996.2 hPa | 0 mm | - | - | - |
| 1777945872 | 23.89° C | 67% | 996 hPa | 0 mm | - | - | - |
| 1777942273 | 25.56° C | 64% | 996.1 hPa | 0 mm | - | - | - |
| 1777940475 | 25.56° C | 62% | 996.2 hPa | 0 mm | - | - | - |
| 1777938672 | 26.67° C | 59% | 996.5 hPa | 0 mm | - | - | - |
| 1777936873 | 26.67° C | 59% | 996.8 hPa | 0 mm | - | - | - |
| 1777935073 | 26.67° C | 58% | 997.2 hPa | 0 mm | - | - | - |
| 1777933274 | 27.22° C | 57% | 997.3 hPa | 0 mm | - | - | - |
| 1777929673 | 27.22° C | 55% | 998.1 hPa | 0 mm | - | - | - |
* Rain latest hour (hover to see other rain measurements)
** Current wind speed in m/s (hover to see current wind gust speed)